sensor_id;sensor_type;location;lat;lon;timestamp;P1;durP1;ratioP1;P2;durP2;ratioP2
79348;SDS011;68817;48.110;11.660;2024-02-26T00:00:31;6.90;;;4.03;;
79348;SDS011;68817;48.110;11.660;2024-02-26T00:02:57;6.75;;;3.50;;
79348;SDS011;68817;48.110;11.660;2024-02-26T00:05:22;5.70;;;3.88;;
79348;SDS011;68817;48.110;11.660;2024-02-26T00:07:48;5.78;;;3.58;;
79348;SDS011;68817;48.110;11.660;2024-02-26T00:10:14;5.70;;;3.20;;
79348;SDS011;68817;48.110;11.660;2024-02-26T00:12:39;4.82;;;3.30;;
79348;SDS011;68817;48.110;11.660;2024-02-26T00:15:05;5.82;;;3.35;;
79348;SDS011;68817;48.110;11.660;2024-02-26T00:17:31;9.15;;;3.10;;
79348;SDS011;68817;48.110;11.660;2024-02-26T00:19:57;7.57;;;3.38;;
79348;SDS011;68817;48.110;11.660;2024-02-26T00:22:22;4.80;;;3.33;;
79348;SDS011;68817;48.110;11.660;2024-02-26T00:24:48;5.93;;;2.90;;
79348;SDS011;68817;48.110;11.660;2024-02-26T00:27:13;6.78;;;3.22;;
79348;SDS011;68817;48.110;11.660;2024-02-26T00:29:38;5.72;;;3.03;;
79348;SDS011;68817;48.110;11.660;2024-02-26T00:32:04;4.93;;;3.13;;
79348;SDS011;68817;48.110;11.660;2024-02-26T00:34:30;5.25;;;3.00;;
79348;SDS011;68817;48.110;11.660;2024-02-26T00:36:56;6.13;;;3.53;;
79348;SDS011;68817;48.110;11.660;2024-02-26T00:39:21;5.47;;;2.83;;
79348;SDS011;68817;48.110;11.660;2024-02-26T00:41:46;4.72;;;2.85;;
79348;SDS011;68817;48.110;11.660;2024-02-26T00:44:12;6.65;;;3.33;;
79348;SDS011;68817;48.110;11.660;2024-02-26T00:46:37;5.00;;;3.20;;
79348;SDS011;68817;48.110;11.660;2024-02-26T00:49:03;5.97;;;3.30;;
79348;SDS011;68817;48.110;11.660;2024-02-26T00:51:28;4.35;;;2.90;;
79348;SDS011;68817;48.110;11.660;2024-02-26T00:53:54;7.50;;;3.35;;
79348;SDS011;68817;48.110;11.660;2024-02-26T00:56:21;5.90;;;3.03;;
79348;SDS011;68817;48.110;11.660;2024-02-26T00:58:46;5.63;;;3.20;;
79348;SDS011;68817;48.110;11.660;2024-02-26T01:01:11;4.60;;;2.88;;
79348;SDS011;68817;48.110;11.660;2024-02-26T01:03:37;5.05;;;2.95;;
79348;SDS011;68817;48.110;11.660;2024-02-26T01:06:02;7.85;;;3.08;;
79348;SDS011;68817;48.110;11.660;2024-02-26T01:08:28;6.38;;;3.60;;
79348;SDS011;68817;48.110;11.660;2024-02-26T01:10:53;5.18;;;3.20;;
79348;SDS011;68817;48.110;11.660;2024-02-26T01:13:19;6.10;;;3.00;;
79348;SDS011;68817;48.110;11.660;2024-02-26T01:15:44;4.60;;;2.78;;
79348;SDS011;68817;48.110;11.660;2024-02-26T01:18:09;3.95;;;2.65;;
79348;SDS011;68817;48.110;11.660;2024-02-26T01:20:35;5.13;;;3.22;;
79348;SDS011;68817;48.110;11.660;2024-02-26T01:23:00;5.88;;;2.80;;
79348;SDS011;68817;48.110;11.660;2024-02-26T01:25:26;4.47;;;2.90;;
79348;SDS011;68817;48.110;11.660;2024-02-26T01:27:51;3.58;;;2.47;;
79348;SDS011;68817;48.110;11.660;2024-02-26T01:30:16;3.83;;;2.38;;
79348;SDS011;68817;48.110;11.660;2024-02-26T01:32:42;5.32;;;2.58;;
79348;SDS011;68817;48.110;11.660;2024-02-26T01:35:08;3.90;;;2.28;;
79348;SDS011;68817;48.110;11.660;2024-02-26T01:37:36;4.50;;;2.97;;
79348;SDS011;68817;48.110;11.660;2024-02-26T01:40:01;3.60;;;2.53;;
79348;SDS011;68817;48.110;11.660;2024-02-26T01:42:29;3.92;;;2.17;;
79348;SDS011;68817;48.110;11.660;2024-02-26T01:44:56;5.03;;;3.05;;
79348;SDS011;68817;48.110;11.660;2024-02-26T01:47:21;3.72;;;2.33;;
79348;SDS011;68817;48.110;11.660;2024-02-26T01:49:47;4.43;;;2.40;;
79348;SDS011;68817;48.110;11.660;2024-02-26T01:52:13;3.58;;;2.10;;
79348;SDS011;68817;48.110;11.660;2024-02-26T01:54:38;3.05;;;2.20;;
79348;SDS011;68817;48.110;11.660;2024-02-26T01:57:05;2.40;;;1.90;;
79348;SDS011;68817;48.110;11.660;2024-02-26T01:59:32;3.30;;;2.05;;
79348;SDS011;68817;48.110;11.660;2024-02-26T02:01:58;3.38;;;2.30;;
79348;SDS011;68817;48.110;11.660;2024-02-26T02:04:26;3.30;;;2.17;;
79348;SDS011;68817;48.110;11.660;2024-02-26T02:06:52;3.28;;;1.85;;
79348;SDS011;68817;48.110;11.660;2024-02-26T02:09:18;3.58;;;2.10;;
79348;SDS011;68817;48.110;11.660;2024-02-26T02:11:43;3.50;;;2.20;;
79348;SDS011;68817;48.110;11.660;2024-02-26T02:14:09;2.97;;;1.98;;
79348;SDS011;68817;48.110;11.660;2024-02-26T02:16:35;2.83;;;2.00;;
79348;SDS011;68817;48.110;11.660;2024-02-26T02:19:00;3.33;;;1.90;;
79348;SDS011;68817;48.110;11.660;2024-02-26T02:21:26;3.15;;;1.98;;
79348;SDS011;68817;48.110;11.660;2024-02-26T02:23:51;2.60;;;1.60;;
79348;SDS011;68817;48.110;11.660;2024-02-26T02:26:17;3.30;;;2.00;;
79348;SDS011;68817;48.110;11.660;2024-02-26T02:28:42;3.15;;;1.83;;
79348;SDS011;68817;48.110;11.660;2024-02-26T02:31:08;2.53;;;1.52;;
79348;SDS011;68817;48.110;11.660;2024-02-26T02:33:34;3.05;;;2.00;;
79348;SDS011;68817;48.110;11.660;2024-02-26T02:36:00;2.92;;;1.70;;
79348;SDS011;68817;48.110;11.660;2024-02-26T02:38:25;3.33;;;1.92;;
79348;SDS011;68817;48.110;11.660;2024-02-26T02:40:51;2.33;;;1.65;;
79348;SDS011;68817;48.110;11.660;2024-02-26T02:43:17;2.97;;;1.98;;
79348;SDS011;68817;48.110;11.660;2024-02-26T02:45:42;2.33;;;1.70;;
79348;SDS011;68817;48.110;11.660;2024-02-26T02:48:07;3.38;;;1.83;;
79348;SDS011;68817;48.110;11.660;2024-02-26T02:50:33;2.33;;;1.45;;
79348;SDS011;68817;48.110;11.660;2024-02-26T02:52:58;2.58;;;1.42;;
79348;SDS011;68817;48.110;11.660;2024-02-26T02:55:24;2.88;;;1.73;;
79348;SDS011;68817;48.110;11.660;2024-02-26T02:57:50;3.13;;;1.50;;
79348;SDS011;68817;48.110;11.660;2024-02-26T03:00:15;2.63;;;1.45;;
79348;SDS011;68817;48.110;11.660;2024-02-26T03:02:41;2.05;;;1.40;;
79348;SDS011;68817;48.110;11.660;2024-02-26T03:05:08;2.75;;;1.48;;
79348;SDS011;68817;48.110;11.660;2024-02-26T03:07:33;2.78;;;1.52;;
79348;SDS011;68817;48.110;11.660;2024-02-26T03:09:59;7.93;;;2.55;;
79348;SDS011;68817;48.110;11.660;2024-02-26T03:12:24;4.85;;;2.75;;
79348;SDS011;68817;48.110;11.660;2024-02-26T03:14:49;4.53;;;2.25;;
79348;SDS011;68817;48.110;11.660;2024-02-26T03:17:15;4.60;;;2.55;;
79348;SDS011;68817;48.110;11.660;2024-02-26T03:19:40;4.80;;;2.47;;
79348;SDS011;68817;48.110;11.660;2024-02-26T03:22:06;6.72;;;2.65;;
79348;SDS011;68817;48.110;11.660;2024-02-26T03:24:32;5.10;;;2.45;;
79348;SDS011;68817;48.110;11.660;2024-02-26T03:26:57;5.97;;;3.40;;
79348;SDS011;68817;48.110;11.660;2024-02-26T03:29:23;8.07;;;4.25;;
79348;SDS011;68817;48.110;11.660;2024-02-26T03:31:49;6.80;;;3.25;;
79348;SDS011;68817;48.110;11.660;2024-02-26T03:34:14;3.88;;;2.00;;
79348;SDS011;68817;48.110;11.660;2024-02-26T03:36:40;2.92;;;1.80;;
79348;SDS011;68817;48.110;11.660;2024-02-26T03:39:07;3.70;;;1.70;;
79348;SDS011;68817;48.110;11.660;2024-02-26T03:41:35;4.40;;;1.98;;
79348;SDS011;68817;48.110;11.660;2024-02-26T03:44:01;3.75;;;2.20;;
79348;SDS011;68817;48.110;11.660;2024-02-26T03:46:27;5.03;;;2.70;;
79348;SDS011;68817;48.110;11.660;2024-02-26T03:48:52;8.10;;;3.30;;
79348;SDS011;68817;48.110;11.660;2024-02-26T03:51:18;9.77;;;3.60;;
79348;SDS011;68817;48.110;11.660;2024-02-26T03:53:43;10.48;;;3.55;;
79348;SDS011;68817;48.110;11.660;2024-02-26T03:56:10;8.35;;;3.80;;
79348;SDS011;68817;48.110;11.660;2024-02-26T03:58:36;8.60;;;3.17;;
79348;SDS011;68817;48.110;11.660;2024-02-26T04:01:02;10.57;;;4.35;;
79348;SDS011;68817;48.110;11.660;2024-02-26T04:03:27;4.20;;;2.22;;
79348;SDS011;68817;48.110;11.660;2024-02-26T04:05:52;3.47;;;1.90;;
79348;SDS011;68817;48.110;11.660;2024-02-26T04:08:18;4.28;;;2.20;;
79348;SDS011;68817;48.110;11.660;2024-02-26T04:10:43;2.00;;;1.67;;
79348;SDS011;68817;48.110;11.660;2024-02-26T04:13:09;4.35;;;1.70;;
79348;SDS011;68817;48.110;11.660;2024-02-26T04:15:34;1.85;;;1.50;;
79348;SDS011;68817;48.110;11.660;2024-02-26T04:17:59;1.90;;;1.30;;
79348;SDS011;68817;48.110;11.660;2024-02-26T04:20:25;3.45;;;1.48;;
79348;SDS011;68817;48.110;11.660;2024-02-26T04:22:51;3.88;;;1.65;;
79348;SDS011;68817;48.110;11.660;2024-02-26T04:25:16;2.05;;;1.30;;
79348;SDS011;68817;48.110;11.660;2024-02-26T04:27:42;2.75;;;1.70;;
79348;SDS011;68817;48.110;11.660;2024-02-26T04:30:07;2.92;;;1.75;;
79348;SDS011;68817;48.110;11.660;2024-02-26T04:32:33;2.17;;;1.40;;
79348;SDS011;68817;48.110;11.660;2024-02-26T04:34:59;1.80;;;1.05;;
79348;SDS011;68817;48.110;11.660;2024-02-26T04:37:25;1.65;;;1.10;;
79348;SDS011;68817;48.110;11.660;2024-02-26T04:39:57;2.60;;;1.40;;
79348;SDS011;68817;48.110;11.660;2024-02-26T04:42:23;1.73;;;1.30;;
79348;SDS011;68817;48.110;11.660;2024-02-26T04:44:48;3.63;;;1.48;;
79348;SDS011;68817;48.110;11.660;2024-02-26T04:47:14;1.95;;;1.40;;
79348;SDS011;68817;48.110;11.660;2024-02-26T04:49:39;2.50;;;1.40;;
79348;SDS011;68817;48.110;11.660;2024-02-26T04:52:05;2.25;;;1.52;;
79348;SDS011;68817;48.110;11.660;2024-02-26T04:54:30;1.70;;;1.20;;
79348;SDS011;68817;48.110;11.660;2024-02-26T04:56:55;2.65;;;1.38;;
79348;SDS011;68817;48.110;11.660;2024-02-26T04:59:21;1.80;;;1.10;;
79348;SDS011;68817;48.110;11.660;2024-02-26T05:01:46;2.17;;;1.40;;
79348;SDS011;68817;48.110;11.660;2024-02-26T05:04:12;2.63;;;1.48;;
79348;SDS011;68817;48.110;11.660;2024-02-26T05:06:37;1.83;;;1.25;;
79348;SDS011;68817;48.110;11.660;2024-02-26T05:09:03;2.40;;;1.50;;
79348;SDS011;68817;48.110;11.660;2024-02-26T05:11:28;1.98;;;1.30;;
79348;SDS011;68817;48.110;11.660;2024-02-26T05:13:54;2.47;;;1.10;;
79348;SDS011;68817;48.110;11.660;2024-02-26T05:16:19;2.45;;;1.40;;
79348;SDS011;68817;48.110;11.660;2024-02-26T05:18:46;3.00;;;1.25;;
79348;SDS011;68817;48.110;11.660;2024-02-26T05:21:12;1.95;;;1.15;;
79348;SDS011;68817;48.110;11.660;2024-02-26T05:23:37;1.25;;;0.90;;
79348;SDS011;68817;48.110;11.660;2024-02-26T05:26:03;1.65;;;1.25;;
79348;SDS011;68817;48.110;11.660;2024-02-26T05:28:28;1.75;;;1.40;;
79348;SDS011;68817;48.110;11.660;2024-02-26T05:30:53;2.97;;;1.63;;
79348;SDS011;68817;48.110;11.660;2024-02-26T05:33:19;2.90;;;1.10;;
79348;SDS011;68817;48.110;11.660;2024-02-26T05:35:44;3.13;;;1.90;;
79348;SDS011;68817;48.110;11.660;2024-02-26T05:38:10;1.92;;;1.40;;
79348;SDS011;68817;48.110;11.660;2024-02-26T05:40:35;1.90;;;1.20;;
79348;SDS011;68817;48.110;11.660;2024-02-26T05:43:01;4.20;;;1.20;;
79348;SDS011;68817;48.110;11.660;2024-02-26T05:45:26;2.38;;;1.33;;
79348;SDS011;68817;48.110;11.660;2024-02-26T05:47:51;2.83;;;1.50;;
79348;SDS011;68817;48.110;11.660;2024-02-26T05:50:17;2.80;;;1.35;;
79348;SDS011;68817;48.110;11.660;2024-02-26T05:52:42;3.13;;;1.58;;
79348;SDS011;68817;48.110;11.660;2024-02-26T05:55:08;2.47;;;1.30;;
79348;SDS011;68817;48.110;11.660;2024-02-26T05:57:34;1.65;;;1.27;;
79348;SDS011;68817;48.110;11.660;2024-02-26T05:59:59;2.42;;;1.30;;
79348;SDS011;68817;48.110;11.660;2024-02-26T06:02:36;3.60;;;1.55;;
79348;SDS011;68817;48.110;11.660;2024-02-26T06:05:02;1.80;;;1.23;;
79348;SDS011;68817;48.110;11.660;2024-02-26T06:07:28;2.20;;;1.33;;
79348;SDS011;68817;48.110;11.660;2024-02-26T06:09:53;2.33;;;1.40;;
79348;SDS011;68817;48.110;11.660;2024-02-26T06:12:19;5.85;;;1.92;;
79348;SDS011;68817;48.110;11.660;2024-02-26T06:14:44;4.93;;;2.10;;
79348;SDS011;68817;48.110;11.660;2024-02-26T06:17:10;2.17;;;1.38;;
79348;SDS011;68817;48.110;11.660;2024-02-26T06:19:35;2.95;;;1.80;;
79348;SDS011;68817;48.110;11.660;2024-02-26T06:22:01;2.65;;;1.48;;
79348;SDS011;68817;48.110;11.660;2024-02-26T06:24:26;2.08;;;1.38;;
79348;SDS011;68817;48.110;11.660;2024-02-26T06:26:52;2.92;;;1.50;;
79348;SDS011;68817;48.110;11.660;2024-02-26T06:29:17;2.42;;;1.35;;
79348;SDS011;68817;48.110;11.660;2024-02-26T06:31:42;2.33;;;1.50;;
79348;SDS011;68817;48.110;11.660;2024-02-26T06:34:08;3.35;;;1.30;;
79348;SDS011;68817;48.110;11.660;2024-02-26T06:36:34;2.20;;;1.13;;
79348;SDS011;68817;48.110;11.660;2024-02-26T06:38:59;3.13;;;1.20;;
79348;SDS011;68817;48.110;11.660;2024-02-26T06:41:25;3.42;;;1.60;;
79348;SDS011;68817;48.110;11.660;2024-02-26T06:43:53;4.75;;;1.40;;
79348;SDS011;68817;48.110;11.660;2024-02-26T06:46:19;2.42;;;1.40;;
79348;SDS011;68817;48.110;11.660;2024-02-26T06:48:44;2.53;;;1.20;;
79348;SDS011;68817;48.110;11.660;2024-02-26T06:51:09;2.67;;;1.33;;
79348;SDS011;68817;48.110;11.660;2024-02-26T06:53:35;2.58;;;1.38;;
79348;SDS011;68817;48.110;11.660;2024-02-26T06:56:00;4.82;;;1.70;;
79348;SDS011;68817;48.110;11.660;2024-02-26T06:58:26;3.55;;;1.85;;
79348;SDS011;68817;48.110;11.660;2024-02-26T07:00:51;3.58;;;1.80;;
79348;SDS011;68817;48.110;11.660;2024-02-26T07:03:16;2.83;;;2.03;;
79348;SDS011;68817;48.110;11.660;2024-02-26T07:05:42;5.40;;;2.30;;
79348;SDS011;68817;48.110;11.660;2024-02-26T07:08:09;3.85;;;2.65;;
79348;SDS011;68817;48.110;11.660;2024-02-26T07:10:34;7.88;;;3.17;;
79348;SDS011;68817;48.110;11.660;2024-02-26T07:13:00;5.40;;;3.03;;
79348;SDS011;68817;48.110;11.660;2024-02-26T07:15:25;8.05;;;2.95;;
79348;SDS011;68817;48.110;11.660;2024-02-26T07:17:51;4.53;;;2.58;;
79348;SDS011;68817;48.110;11.660;2024-02-26T07:20:16;4.47;;;2.50;;
79348;SDS011;68817;48.110;11.660;2024-02-26T07:22:43;6.82;;;2.80;;
79348;SDS011;68817;48.110;11.660;2024-02-26T07:25:09;4.40;;;2.80;;
79348;SDS011;68817;48.110;11.660;2024-02-26T07:27:38;3.67;;;2.05;;
79348;SDS011;68817;48.110;11.660;2024-02-26T07:30:04;2.55;;;1.63;;
79348;SDS011;68817;48.110;11.660;2024-02-26T07:32:30;3.10;;;1.23;;
79348;SDS011;68817;48.110;11.660;2024-02-26T07:34:55;2.83;;;1.60;;
79348;SDS011;68817;48.110;11.660;2024-02-26T07:37:20;2.92;;;1.45;;
79348;SDS011;68817;48.110;11.660;2024-02-26T07:39:46;2.38;;;1.38;;
79348;SDS011;68817;48.110;11.660;2024-02-26T07:42:11;4.70;;;1.80;;
79348;SDS011;68817;48.110;11.660;2024-02-26T07:44:37;4.20;;;1.50;;
79348;SDS011;68817;48.110;11.660;2024-02-26T07:47:02;3.35;;;1.75;;
79348;SDS011;68817;48.110;11.660;2024-02-26T07:49:28;3.08;;;1.83;;
79348;SDS011;68817;48.110;11.660;2024-02-26T07:51:53;5.03;;;1.95;;
79348;SDS011;68817;48.110;11.660;2024-02-26T07:54:19;4.13;;;2.25;;
79348;SDS011;68817;48.110;11.660;2024-02-26T07:56:45;3.08;;;2.10;;
79348;SDS011;68817;48.110;11.660;2024-02-26T07:59:10;2.38;;;1.85;;
79348;SDS011;68817;48.110;11.660;2024-02-26T08:01:36;5.70;;;1.63;;
79348;SDS011;68817;48.110;11.660;2024-02-26T08:04:04;3.17;;;1.58;;
79348;SDS011;68817;48.110;11.660;2024-02-26T08:06:30;2.38;;;1.80;;
79348;SDS011;68817;48.110;11.660;2024-02-26T08:08:55;3.95;;;1.80;;
79348;SDS011;68817;48.110;11.660;2024-02-26T08:11:21;4.93;;;1.67;;
79348;SDS011;68817;48.110;11.660;2024-02-26T08:13:46;3.13;;;1.20;;
79348;SDS011;68817;48.110;11.660;2024-02-26T08:16:11;2.33;;;1.30;;
79348;SDS011;68817;48.110;11.660;2024-02-26T08:18:37;2.75;;;1.30;;
79348;SDS011;68817;48.110;11.660;2024-02-26T08:21:02;2.00;;;1.20;;
79348;SDS011;68817;48.110;11.660;2024-02-26T08:23:28;2.88;;;1.10;;
79348;SDS011;68817;48.110;11.660;2024-02-26T08:25:54;3.92;;;1.90;;
79348;SDS011;68817;48.110;11.660;2024-02-26T08:28:19;2.88;;;1.90;;
79348;SDS011;68817;48.110;11.660;2024-02-26T08:30:44;6.85;;;2.40;;
79348;SDS011;68817;48.110;11.660;2024-02-26T08:33:10;6.15;;;2.28;;
79348;SDS011;68817;48.110;11.660;2024-02-26T08:35:36;3.65;;;2.25;;
79348;SDS011;68817;48.110;11.660;2024-02-26T08:38:02;9.02;;;2.17;;
79348;SDS011;68817;48.110;11.660;2024-02-26T08:40:28;2.72;;;1.48;;
79348;SDS011;68817;48.110;11.660;2024-02-26T08:42:54;2.83;;;1.63;;
79348;SDS011;68817;48.110;11.660;2024-02-26T08:45:20;4.78;;;1.50;;
79348;SDS011;68817;48.110;11.660;2024-02-26T08:47:45;3.78;;;2.00;;
79348;SDS011;68817;48.110;11.660;2024-02-26T08:50:11;4.20;;;1.92;;
79348;SDS011;68817;48.110;11.660;2024-02-26T08:52:37;3.55;;;1.13;;
79348;SDS011;68817;48.110;11.660;2024-02-26T08:55:03;4.63;;;1.80;;
79348;SDS011;68817;48.110;11.660;2024-02-26T08:57:29;7.03;;;1.90;;
79348;SDS011;68817;48.110;11.660;2024-02-26T08:59:57;4.32;;;1.60;;
79348;SDS011;68817;48.110;11.660;2024-02-26T09:02:23;3.22;;;1.50;;
79348;SDS011;68817;48.110;11.660;2024-02-26T09:04:48;3.10;;;1.30;;
79348;SDS011;68817;48.110;11.660;2024-02-26T09:07:16;6.35;;;2.00;;
79348;SDS011;68817;48.110;11.660;2024-02-26T09:09:41;3.15;;;1.50;;
79348;SDS011;68817;48.110;11.660;2024-02-26T09:12:06;4.25;;;1.55;;
79348;SDS011;68817;48.110;11.660;2024-02-26T09:14:32;4.68;;;1.65;;
79348;SDS011;68817;48.110;11.660;2024-02-26T09:16:57;4.30;;;2.10;;
79348;SDS011;68817;48.110;11.660;2024-02-26T09:19:23;5.05;;;2.05;;
79348;SDS011;68817;48.110;11.660;2024-02-26T09:21:51;3.60;;;2.28;;
79348;SDS011;68817;48.110;11.660;2024-02-26T09:24:16;4.13;;;2.10;;
79348;SDS011;68817;48.110;11.660;2024-02-26T09:26:41;4.13;;;2.00;;
79348;SDS011;68817;48.110;11.660;2024-02-26T09:29:07;5.43;;;2.05;;
79348;SDS011;68817;48.110;11.660;2024-02-26T09:31:33;4.50;;;2.15;;
79348;SDS011;68817;48.110;11.660;2024-02-26T09:33:59;4.18;;;1.92;;
79348;SDS011;68817;48.110;11.660;2024-02-26T09:36:24;4.18;;;2.10;;
79348;SDS011;68817;48.110;11.660;2024-02-26T09:38:50;6.03;;;2.05;;
79348;SDS011;68817;48.110;11.660;2024-02-26T09:41:15;3.83;;;1.90;;
79348;SDS011;68817;48.110;11.660;2024-02-26T09:43:42;2.85;;;1.70;;
79348;SDS011;68817;48.110;11.660;2024-02-26T09:46:10;3.45;;;1.60;;
79348;SDS011;68817;48.110;11.660;2024-02-26T09:48:35;4.68;;;1.80;;
79348;SDS011;68817;48.110;11.660;2024-02-26T09:51:02;6.13;;;1.83;;
79348;SDS011;68817;48.110;11.660;2024-02-26T09:53:29;2.35;;;1.83;;
79348;SDS011;68817;48.110;11.660;2024-02-26T09:55:56;3.45;;;2.05;;
79348;SDS011;68817;48.110;11.660;2024-02-26T09:58:22;3.90;;;1.60;;
79348;SDS011;68817;48.110;11.660;2024-02-26T10:00:50;2.30;;;1.13;;
79348;SDS011;68817;48.110;11.660;2024-02-26T10:03:17;2.75;;;1.60;;
79348;SDS011;68817;48.110;11.660;2024-02-26T10:05:43;3.22;;;1.90;;
79348;SDS011;68817;48.110;11.660;2024-02-26T10:08:09;2.20;;;1.20;;
79348;SDS011;68817;48.110;11.660;2024-02-26T10:10:36;4.20;;;1.52;;
79348;SDS011;68817;48.110;11.660;2024-02-26T10:13:03;2.15;;;1.20;;
79348;SDS011;68817;48.110;11.660;2024-02-26T10:15:34;2.25;;;1.15;;
79348;SDS011;68817;48.110;11.660;2024-02-26T10:17:59;3.00;;;1.27;;
79348;SDS011;68817;48.110;11.660;2024-02-26T10:20:25;1.67;;;0.98;;
79348;SDS011;68817;48.110;11.660;2024-02-26T10:22:51;2.85;;;0.80;;
79348;SDS011;68817;48.110;11.660;2024-02-26T10:25:17;1.70;;;0.70;;
79348;SDS011;68817;48.110;11.660;2024-02-26T10:27:43;2.95;;;1.00;;
79348;SDS011;68817;48.110;11.660;2024-02-26T10:30:18;1.80;;;1.13;;
79348;SDS011;68817;48.110;11.660;2024-02-26T10:32:46;1.60;;;0.90;;
79348;SDS011;68817;48.110;11.660;2024-02-26T10:35:12;2.03;;;0.80;;
79348;SDS011;68817;48.110;11.660;2024-02-26T10:37:41;1.52;;;0.90;;
79348;SDS011;68817;48.110;11.660;2024-02-26T10:40:13;1.98;;;1.00;;
79348;SDS011;68817;48.110;11.660;2024-02-26T10:42:39;2.30;;;1.30;;
79348;SDS011;68817;48.110;11.660;2024-02-26T10:45:06;1.27;;;0.90;;
79348;SDS011;68817;48.110;11.660;2024-02-26T10:47:32;1.52;;;1.08;;
79348;SDS011;68817;48.110;11.660;2024-02-26T10:49:59;2.47;;;0.93;;
79348;SDS011;68817;48.110;11.660;2024-02-26T10:52:24;1.63;;;0.80;;
79348;SDS011;68817;48.110;11.660;2024-02-26T10:54:51;1.70;;;1.00;;
79348;SDS011;68817;48.110;11.660;2024-02-26T10:57:19;1.13;;;0.75;;
79348;SDS011;68817;48.110;11.660;2024-02-26T10:59:45;1.30;;;0.90;;
79348;SDS011;68817;48.110;11.660;2024-02-26T11:02:10;1.50;;;0.80;;
79348;SDS011;68817;48.110;11.660;2024-02-26T11:04:37;1.92;;;1.00;;
79348;SDS011;68817;48.110;11.660;2024-02-26T11:07:03;2.22;;;0.90;;
79348;SDS011;68817;48.110;11.660;2024-02-26T11:09:29;1.42;;;0.80;;
79348;SDS011;68817;48.110;11.660;2024-02-26T11:11:56;2.05;;;1.42;;
79348;SDS011;68817;48.110;11.660;2024-02-26T11:14:26;1.63;;;1.00;;
79348;SDS011;68817;48.110;11.660;2024-02-26T11:16:52;1.40;;;0.90;;
79348;SDS011;68817;48.110;11.660;2024-02-26T11:19:23;1.38;;;0.90;;
79348;SDS011;68817;48.110;11.660;2024-02-26T11:21:50;0.80;;;0.68;;
79348;SDS011;68817;48.110;11.660;2024-02-26T11:24:15;1.08;;;0.88;;
79348;SDS011;68817;48.110;11.660;2024-02-26T11:26:49;2.03;;;0.93;;
79348;SDS011;68817;48.110;11.660;2024-02-26T11:29:25;2.50;;;0.80;;
79348;SDS011;68817;48.110;11.660;2024-02-26T11:31:52;1.10;;;0.85;;
79348;SDS011;68817;48.110;11.660;2024-02-26T11:34:21;2.17;;;0.80;;
79348;SDS011;68817;48.110;11.660;2024-02-26T11:36:48;1.00;;;0.70;;
79348;SDS011;68817;48.110;11.660;2024-02-26T11:39:14;2.70;;;0.82;;
79348;SDS011;68817;48.110;11.660;2024-02-26T11:41:42;1.42;;;0.82;;
79348;SDS011;68817;48.110;11.660;2024-02-26T11:44:08;1.88;;;0.95;;
79348;SDS011;68817;48.110;11.660;2024-02-26T11:46:41;2.90;;;0.82;;
79348;SDS011;68817;48.110;11.660;2024-02-26T11:51:52;1.70;;;0.85;;
79348;SDS011;68817;48.110;11.660;2024-02-26T11:54:38;1.08;;;0.70;;
79348;SDS011;68817;48.110;11.660;2024-02-26T11:57:24;1.10;;;0.70;;
79348;SDS011;68817;48.110;11.660;2024-02-26T11:59:56;2.20;;;0.95;;
79348;SDS011;68817;48.110;11.660;2024-02-26T12:02:44;1.83;;;0.77;;
79348;SDS011;68817;48.110;11.660;2024-02-26T12:05:24;2.53;;;0.90;;
79348;SDS011;68817;48.110;11.660;2024-02-26T12:07:55;1.38;;;0.75;;
79348;SDS011;68817;48.110;11.660;2024-02-26T12:13:09;1.67;;;0.90;;
79348;SDS011;68817;48.110;11.660;2024-02-26T12:15:41;1.00;;;0.70;;
79348;SDS011;68817;48.110;11.660;2024-02-26T12:18:17;0.68;;;0.60;;
79348;SDS011;68817;48.110;11.660;2024-02-26T12:20:46;2.00;;;0.70;;
79348;SDS011;68817;48.110;11.660;2024-02-26T12:23:15;1.25;;;0.60;;
79348;SDS011;68817;48.110;11.660;2024-02-26T12:25:44;2.10;;;0.70;;
79348;SDS011;68817;48.110;11.660;2024-02-26T12:28:14;1.50;;;0.70;;
79348;SDS011;68817;48.110;11.660;2024-02-26T12:30:43;1.40;;;0.60;;
79348;SDS011;68817;48.110;11.660;2024-02-26T12:33:09;1.00;;;0.57;;
79348;SDS011;68817;48.110;11.660;2024-02-26T12:35:38;0.75;;;0.50;;
79348;SDS011;68817;48.110;11.660;2024-02-26T12:38:03;1.67;;;0.70;;
79348;SDS011;68817;48.110;11.660;2024-02-26T12:40:29;2.22;;;0.90;;
79348;SDS011;68817;48.110;11.660;2024-02-26T12:42:55;1.52;;;0.73;;
79348;SDS011;68817;48.110;11.660;2024-02-26T12:45:20;1.40;;;0.70;;
79348;SDS011;68817;48.110;11.660;2024-02-26T12:47:46;0.63;;;0.47;;
79348;SDS011;68817;48.110;11.660;2024-02-26T12:50:12;1.10;;;0.60;;
79348;SDS011;68817;48.110;11.660;2024-02-26T12:52:39;0.95;;;0.57;;
79348;SDS011;68817;48.110;11.660;2024-02-26T12:55:06;2.03;;;0.82;;
79348;SDS011;68817;48.110;11.660;2024-02-26T12:57:36;1.10;;;0.60;;
79348;SDS011;68817;48.110;11.660;2024-02-26T13:00:04;1.30;;;0.75;;
79348;SDS011;68817;48.110;11.660;2024-02-26T13:02:31;1.25;;;0.65;;
79348;SDS011;68817;48.110;11.660;2024-02-26T13:04:57;1.80;;;1.00;;
79348;SDS011;68817;48.110;11.660;2024-02-26T13:07:23;4.15;;;1.75;;
79348;SDS011;68817;48.110;11.660;2024-02-26T13:09:49;3.40;;;1.73;;
79348;SDS011;68817;48.110;11.660;2024-02-26T13:12:15;2.92;;;1.88;;
79348;SDS011;68817;48.110;11.660;2024-02-26T13:14:41;4.75;;;1.80;;
79348;SDS011;68817;48.110;11.660;2024-02-26T13:17:06;5.60;;;2.00;;
79348;SDS011;68817;48.110;11.660;2024-02-26T13:19:32;3.30;;;1.80;;
79348;SDS011;68817;48.110;11.660;2024-02-26T13:22:04;6.20;;;1.70;;
79348;SDS011;68817;48.110;11.660;2024-02-26T13:24:31;4.45;;;1.80;;
79348;SDS011;68817;48.110;11.660;2024-02-26T13:26:58;3.20;;;1.60;;
79348;SDS011;68817;48.110;11.660;2024-02-26T13:29:23;2.20;;;1.63;;
79348;SDS011;68817;48.110;11.660;2024-02-26T13:31:54;2.97;;;2.05;;
79348;SDS011;68817;48.110;11.660;2024-02-26T13:34:24;2.72;;;1.95;;
79348;SDS011;68817;48.110;11.660;2024-02-26T13:36:56;3.28;;;1.60;;
79348;SDS011;68817;48.110;11.660;2024-02-26T13:39:22;2.97;;;2.15;;
79348;SDS011;68817;48.110;11.660;2024-02-26T13:41:51;3.42;;;1.75;;
79348;SDS011;68817;48.110;11.660;2024-02-26T13:44:17;3.08;;;1.80;;
79348;SDS011;68817;48.110;11.660;2024-02-26T13:46:43;2.30;;;1.83;;
79348;SDS011;68817;48.110;11.660;2024-02-26T13:49:09;3.20;;;2.00;;
79348;SDS011;68817;48.110;11.660;2024-02-26T13:51:36;3.70;;;1.80;;
79348;SDS011;68817;48.110;11.660;2024-02-26T13:54:02;2.03;;;1.50;;
79348;SDS011;68817;48.110;11.660;2024-02-26T13:56:29;2.88;;;1.60;;
79348;SDS011;68817;48.110;11.660;2024-02-26T13:58:55;2.80;;;1.88;;
79348;SDS011;68817;48.110;11.660;2024-02-26T14:01:21;3.83;;;1.70;;
79348;SDS011;68817;48.110;11.660;2024-02-26T14:03:46;2.83;;;1.60;;
79348;SDS011;68817;48.110;11.660;2024-02-26T14:06:12;3.05;;;1.80;;
79348;SDS011;68817;48.110;11.660;2024-02-26T14:08:38;2.20;;;1.70;;
79348;SDS011;68817;48.110;11.660;2024-02-26T14:11:04;3.00;;;1.90;;
79348;SDS011;68817;48.110;11.660;2024-02-26T14:13:30;3.60;;;2.00;;
79348;SDS011;68817;48.110;11.660;2024-02-26T14:15:56;3.67;;;1.98;;
79348;SDS011;68817;48.110;11.660;2024-02-26T14:18:22;5.57;;;2.85;;
79348;SDS011;68817;48.110;11.660;2024-02-26T14:20:47;3.53;;;2.28;;
79348;SDS011;68817;48.110;11.660;2024-02-26T14:23:13;3.95;;;2.28;;
79348;SDS011;68817;48.110;11.660;2024-02-26T14:25:39;4.03;;;1.90;;
79348;SDS011;68817;48.110;11.660;2024-02-26T14:28:05;8.43;;;2.63;;
79348;SDS011;68817;48.110;11.660;2024-02-26T14:30:31;2.83;;;1.80;;
79348;SDS011;68817;48.110;11.660;2024-02-26T14:32:57;5.45;;;2.03;;